avis per tempestes more information blitzortung!


avis per Pluja more information rain snow radar


Visita la nostra xarxa de llocs de meteo:

Template documentation
and downloads

And another site



Thunderstorms From: 18-09-2018 09:00 Until: 19-09-2018 20:59 warning for: Thunderstorms Level: Yellow info button
Rain From: 18-09-2018 09:00 Until: 19-09-2018 20:59 warning for: Rain Level: Yellow info button

Pagina Historial Weather Underground text

Diari Resum Juny 28, 2017 Unitats:  Tant    Imperial   Mètric
« Previous Dia
SegĂźent Dia »
Diari Setmana Mensual Anual Personalitzada
  Maxima: Minima: Media:
Temperatura: TemperatureC °F /  -17.8 °C 18.7 °F /  -7.4 °C 24.6 °F /  -4.1 °C
Punt de rosada: DewpointC °F /  -17.8 °C 8.6 °F /  -13 °C 12 °F /  -11.1 °C
Humitat: Humidity % 28 % 48 %
Wind Speed: WindSpeedKMH mph /  0 km/h - 10 mph /  16.1 km/h
RĂ fegues de vent: WindSpeedGustKMH mph /  0 km/h - -
Vent:- - SSW
Pression baro: PressurehPa in /  0 hPa 999.9 in /  33856.6 hPa -
Precipitacions: 2.0 in /  50.8 mm    
Historical Graphs
 
 
Dades de taula per Juny 28, 2017
Temps Temperatura Punt de rosada Pression baro Vent Wind Speed RĂ fegues de vent Humitat Rainfall Rate (Hourly)
TemperatureC °F /  -17.8 °C DewpointC °F /  -17.8 °C PressurehPa in /  0 hPa Calm     Humidity % HourlyPrecipMM in /  0 mm
00:00 21.0 °F /  -6.1 °C 16.4 °F /  -8.7 °C 1003.9 in /  33992.1 hPa ENE 3.2 mph /  5.1 km/h 4.8 mph /  7.7 km/h 75 % 0.0 in /  0 mm
00:04 23.4 °F /  -4.8 °C 18.3 °F /  -7.6 °C 1002.9 in /  33958.2 hPa Calm     73 % 0.0 in /  0 mm
00:10 21.0 °F /  -6.1 °C 16.6 °F /  -8.6 °C 1003.9 in /  33992.1 hPa ENE 1.6 mph /  2.6 km/h 4.8 mph /  7.7 km/h 76 % 0.0 in /  0 mm
00:20 21.0 °F /  -6.1 °C 16.6 °F /  -8.6 °C 1003.9 in /  33992.1 hPa NE 3.2 mph /  5.1 km/h 6.4 mph /  10.3 km/h 76 % 0.0 in /  0 mm
00:30 21.0 °F /  -6.1 °C 16.6 °F /  -8.6 °C 1003.9 in /  33992.1 hPa NE 3.2 mph /  5.1 km/h 4.8 mph /  7.7 km/h 76 % 0.0 in /  0 mm
00:40 20.9 °F /  -6.2 °C 16.7 °F /  -8.5 °C 1002.9 in /  33958.2 hPa Calm   3.2 mph /  5.1 km/h 77 % 0.0 in /  0 mm
00:50 20.8 °F /  -6.2 °C 16.6 °F /  -8.6 °C 1002.9 in /  33958.2 hPa Calm   3.2 mph /  5.1 km/h 77 % 0.0 in /  0 mm
01:00 20.8 °F /  -6.2 °C 16.6 °F /  -8.6 °C 1002.9 in /  33958.2 hPa Calm   3.2 mph /  5.1 km/h 77 % 0.0 in /  0 mm
01:10 20.6 °F /  -6.3 °C 16.4 °F /  -8.7 °C 1003.9 in /  33992.1 hPa North 1.6 mph /  2.6 km/h 3.2 mph /  5.1 km/h 77 % 0.0 in /  0 mm
01:20 20.4 °F /  -6.4 °C 16.2 °F /  -8.8 °C 1002.9 in /  33958.2 hPa Calm   1.6 mph /  2.6 km/h 77 % 0.0 in /  0 mm
01:30 20.3 °F /  -6.5 °C 16.1 °F /  -8.8 °C 1002.9 in /  33958.2 hPa Calm     77 % 0.0 in /  0 mm
01:40 20.2 °F /  -6.6 °C 16.2 °F /  -8.8 °C 1002.9 in /  33958.2 hPa Calm   1.6 mph /  2.6 km/h 78 % 0.0 in /  0 mm
01:50 20.2 °F /  -6.6 °C 16.2 °F /  -8.8 °C 1002.9 in /  33958.2 hPa Calm   1.6 mph /  2.6 km/h 78 % 0.0 in /  0 mm
02:00 20.1 °F /  -6.6 °C 16.2 °F /  -8.8 °C 1002.9 in /  33958.2 hPa West 1.6 mph /  2.6 km/h 3.2 mph /  5.1 km/h 78 % 0.0 in /  0 mm
02:10 20.2 °F /  -6.6 °C 16.2 °F /  -8.8 °C 1003.9 in /  33992.1 hPa WSW 1.6 mph /  2.6 km/h 3.2 mph /  5.1 km/h 78 % 0.0 in /  0 mm
02:20 20.2 °F /  -6.6 °C 16.2 °F /  -8.8 °C 1003.9 in /  33992.1 hPa Calm   4.8 mph /  7.7 km/h 78 % 0.0 in /  0 mm
02:30 20.2 °F /  -6.6 °C 16.2 °F /  -8.8 °C 1003.9 in /  33992.1 hPa WSW 3.2 mph /  5.1 km/h 4.8 mph /  7.7 km/h 78 % 0.0 in /  0 mm
02:40 20.4 °F /  -6.4 °C 16.4 °F /  -8.7 °C 1002.9 in /  33958.2 hPa SW 1.6 mph /  2.6 km/h 3.2 mph /  5.1 km/h 78 % 0.0 in /  0 mm
02:50 20.6 °F /  -6.3 °C 16.6 °F /  -8.6 °C 1003.9 in /  33992.1 hPa SW 3.2 mph /  5.1 km/h 3.2 mph /  5.1 km/h 78 % 0.0 in /  0 mm
03:00 21.0 °F /  -6.1 °C 16.8 °F /  -8.4 °C 1003.9 in /  33992.1 hPa WSW 3.2 mph /  5.1 km/h 4.8 mph /  7.7 km/h 77 % 0.0 in /  0 mm
03:10 21.6 °F /  -5.8 °C 17.2 °F /  -8.2 °C 1003.9 in /  33992.1 hPa WSW 3.2 mph /  5.1 km/h 6.4 mph /  10.3 km/h 76 % 0.0 in /  0 mm
03:20 22.1 °F /  -5.5 °C 16.6 °F /  -8.6 °C 1003.9 in /  33992.1 hPa WSW 4.8 mph /  7.7 km/h 8.0 mph /  12.9 km/h 71 % 0.0 in /  0 mm
03:30 22.7 °F /  -5.2 °C 16.3 °F /  -8.7 °C 1003.9 in /  33992.1 hPa West 4.8 mph /  7.7 km/h 6.4 mph /  10.3 km/h 67 % 0.0 in /  0 mm
03:40 23.0 °F /  -5 °C 15.3 °F /  -9.3 °C 1003.9 in /  33992.1 hPa West 4.8 mph /  7.7 km/h 9.7 mph /  15.6 km/h 62 % 0.0 in /  0 mm
03:50 22.8 °F /  -5.1 °C 14.4 °F /  -9.8 °C 1002.9 in /  33958.2 hPa WSW 4.8 mph /  7.7 km/h 12.9 mph /  20.8 km/h 59 % 0.0 in /  0 mm
04:00 22.5 °F /  -5.3 °C 13.6 °F /  -10.2 °C 1002.9 in /  33958.2 hPa WSW 4.8 mph /  7.7 km/h 9.7 mph /  15.6 km/h 57 % 0.0 in /  0 mm
04:10 23.3 °F /  -4.8 °C 14.1 °F /  -9.9 °C 1005.0 in /  34029.3 hPa WSW 3.2 mph /  5.1 km/h 4.8 mph /  7.7 km/h 56 % 0.0 in /  0 mm
04:20 23.7 °F /  -4.6 °C 14.1 °F /  -9.9 °C 1003.9 in /  33992.1 hPa WSW 4.8 mph /  7.7 km/h 4.8 mph /  7.7 km/h 55 % 0.0 in /  0 mm
04:30 24.0 °F /  -4.4 °C 13.8 °F /  -10.1 °C 1003.9 in /  33992.1 hPa WSW 4.8 mph /  7.7 km/h 6.4 mph /  10.3 km/h 53 % 0.0 in /  0 mm
04:40 24.5 °F /  -4.2 °C 14.0 °F /  -10 °C 1002.9 in /  33958.2 hPa WSW 3.2 mph /  5.1 km/h 6.4 mph /  10.3 km/h 52 % 0.0 in /  0 mm
04:50 24.6 °F /  -4.1 °C 13.8 °F /  -10.1 °C 1003.9 in /  33992.1 hPa WSW 4.8 mph /  7.7 km/h 6.4 mph /  10.3 km/h 51 % 0.0 in /  0 mm
05:00 25.0 °F /  -3.9 °C 13.6 °F /  -10.2 °C 1003.9 in /  33992.1 hPa WSW 8.0 mph /  12.9 km/h 11.3 mph /  18.2 km/h 49 % 0.0 in /  0 mm
05:10 25.2 °F /  -3.8 °C 13.4 °F /  -10.3 °C 1003.9 in /  33992.1 hPa WSW 4.8 mph /  7.7 km/h 8.0 mph /  12.9 km/h 48 % 0.0 in /  0 mm
05:20 25.7 °F /  -3.5 °C 13.6 °F /  -10.2 °C 1003.9 in /  33992.1 hPa WSW 9.7 mph /  15.6 km/h 9.7 mph /  15.6 km/h 47 % 0.0 in /  0 mm
05:30 26.2 °F /  -3.2 °C 13.7 °F /  -10.2 °C 1003.9 in /  33992.1 hPa WSW 4.8 mph /  7.7 km/h 9.7 mph /  15.6 km/h 46 % 0.0 in /  0 mm
05:40 26.3 °F /  -3.2 °C 13.1 °F /  -10.5 °C 1003.9 in /  33992.1 hPa West 8.0 mph /  12.9 km/h 9.7 mph /  15.6 km/h 44 % 0.0 in /  0 mm
10:45 26.6 °F /  -3 °C 12.6 °F /  -10.8 °C 1002.9 in /  33958.2 hPa West 16.7 mph /  26.9 km/h 16.7 mph /  26.9 km/h 42 % 0.0 in /  0 mm
10:46 26.6 °F /  -3 °C 12.6 °F /  -10.8 °C 1002.9 in /  33958.2 hPa WSW 16.7 mph /  26.9 km/h 16.7 mph /  26.9 km/h 42 % 0.0 in /  0 mm
10:51 26.9 °F /  -2.8 °C 12.9 °F /  -10.6 °C 1002.9 in /  33958.2 hPa South 5.6 mph /  9 km/h 5.6 mph /  9 km/h 42 % 0.0 in /  0 mm
10:56 27.1 °F /  -2.7 °C 12.7 °F /  -10.7 °C 1002.9 in /  33958.2 hPa SSW 7.6 mph /  12.2 km/h 7.6 mph /  12.2 km/h 41 % 0.0 in /  0 mm
10:57 27.0 °F /  -2.8 °C 12.6 °F /  -10.8 °C 1002.9 in /  33958.2 hPa West 9.3 mph /  15 km/h 9.3 mph /  15 km/h 41 % 0.0 in /  0 mm
11:02 26.6 °F /  -3 °C 12.3 °F /  -10.9 °C 1002.9 in /  33958.2 hPa WSW 5.6 mph /  9 km/h 5.6 mph /  9 km/h 41 % 0.0 in /  0 mm
11:07 26.7 °F /  -2.9 °C 12.0 °F /  -11.1 °C 1002.9 in /  33958.2 hPa WNW 13.0 mph /  20.9 km/h 13.0 mph /  20.9 km/h 40 % 0.0 in /  0 mm
11:12 26.7 °F /  -2.9 °C 11.6 °F /  -11.3 °C 1002.9 in /  33958.2 hPa SW 14.8 mph /  23.8 km/h 14.8 mph /  23.8 km/h 39 % 0.0 in /  0 mm
11:17 27.1 °F /  -2.7 °C 11.9 °F /  -11.2 °C 1002.9 in /  33958.2 hPa WSW 6.4 mph /  10.3 km/h 6.4 mph /  10.3 km/h 39 % 0.0 in /  0 mm
11:22 27.5 °F /  -2.5 °C 11.9 °F /  -11.2 °C 1002.9 in /  33958.2 hPa WSW 9.3 mph /  15 km/h 9.3 mph /  15 km/h 38 % 0.0 in /  0 mm
11:23 27.5 °F /  -2.5 °C 11.9 °F /  -11.2 °C 1002.9 in /  33958.2 hPa West 13.0 mph /  20.9 km/h 13.0 mph /  20.9 km/h 38 % 0.0 in /  0 mm
11:28 27.4 °F /  -2.6 °C 11.4 °F /  -11.4 °C 1002.9 in /  33958.2 hPa West 13.0 mph /  20.9 km/h 13.0 mph /  20.9 km/h 37 % 0.0 in /  0 mm
11:33 27.4 °F /  -2.6 °C 11.4 °F /  -11.4 °C 1002.9 in /  33958.2 hPa WSW 9.3 mph /  15 km/h 9.3 mph /  15 km/h 37 % 0.0 in /  0 mm
11:38 27.5 °F /  -2.5 °C 11.1 °F /  -11.6 °C 1002.9 in /  33958.2 hPa WSW 13.0 mph /  20.9 km/h 13.0 mph /  20.9 km/h 36 % 0.0 in /  0 mm
11:43 27.8 °F /  -2.3 °C 11.3 °F /  -11.5 °C 1002.9 in /  33958.2 hPa SW 9.3 mph /  15 km/h 9.3 mph /  15 km/h 36 % 0.0 in /  0 mm
11:48 27.6 °F /  -2.4 °C 11.2 °F /  -11.6 °C 1002.9 in /  33958.2 hPa West 11.1 mph /  17.9 km/h 11.1 mph /  17.9 km/h 36 % 0.0 in /  0 mm
11:53 27.4 °F /  -2.6 °C 11.0 °F /  -11.7 °C 1002.9 in /  33958.2 hPa West 11.1 mph /  17.9 km/h 11.1 mph /  17.9 km/h 36 % 0.0 in /  0 mm
11:58 27.1 °F /  -2.7 °C 10.7 °F /  -11.8 °C 1002.9 in /  33958.2 hPa West 9.3 mph /  15 km/h 9.3 mph /  15 km/h 36 % 0.0 in /  0 mm
12:03 27.3 °F /  -2.6 °C 10.9 °F /  -11.7 °C 1002.9 in /  33958.2 hPa South 9.3 mph /  15 km/h 9.3 mph /  15 km/h 36 % 0.0 in /  0 mm
12:08 27.7 °F /  -2.4 °C 11.3 °F /  -11.5 °C 1002.9 in /  33958.2 hPa SW 7.4 mph /  11.9 km/h 7.4 mph /  11.9 km/h 36 % 0.0 in /  0 mm
12:13 27.1 °F /  -2.7 °C 10.3 °F /  -12.1 °C 1002.9 in /  33958.2 hPa WSW 16.7 mph /  26.9 km/h 16.7 mph /  26.9 km/h 35 % 0.0 in /  0 mm
12:18 27.5 °F /  -2.5 °C 10.7 °F /  -11.8 °C 1002.9 in /  33958.2 hPa WSW 9.3 mph /  15 km/h 9.3 mph /  15 km/h 35 % 0.0 in /  0 mm
12:23 27.8 °F /  -2.3 °C 10.9 °F /  -11.7 °C 1002.9 in /  33958.2 hPa WNW 11.1 mph /  17.9 km/h 11.1 mph /  17.9 km/h 35 % 0.0 in /  0 mm
12:28 28.1 °F /  -2.2 °C 10.8 °F /  -11.8 °C 1002.9 in /  33958.2 hPa West 16.7 mph /  26.9 km/h 16.7 mph /  26.9 km/h 34 % 0.0 in /  0 mm
12:33 28.2 °F /  -2.1 °C 10.4 °F /  -12 °C 1002.9 in /  33958.2 hPa West 13.0 mph /  20.9 km/h 13.0 mph /  20.9 km/h 33 % 0.0 in /  0 mm
12:38 29.0 °F /  -1.7 °C 11.1 °F /  -11.6 °C 1002.9 in /  33958.2 hPa West 9.3 mph /  15 km/h 9.3 mph /  15 km/h 33 % 0.0 in /  0 mm
12:43 28.4 °F /  -2 °C 10.6 °F /  -11.9 °C 1001.9 in /  33924.3 hPa WSW 14.8 mph /  23.8 km/h 14.8 mph /  23.8 km/h 33 % 0.0 in /  0 mm
12:48 28.6 °F /  -1.9 °C 10.3 °F /  -12.1 °C 1001.9 in /  33924.3 hPa WSW 11.1 mph /  17.9 km/h 11.1 mph /  17.9 km/h 32 % 0.0 in /  0 mm
12:53 28.3 °F /  -2.1 °C 10.0 °F /  -12.2 °C 1001.9 in /  33924.3 hPa WNW 9.3 mph /  15 km/h 9.3 mph /  15 km/h 32 % 0.0 in /  0 mm
12:58 28.7 °F /  -1.8 °C 10.8 °F /  -11.8 °C 1001.9 in /  33924.3 hPa SW 9.3 mph /  15 km/h 9.3 mph /  15 km/h 33 % 0.0 in /  0 mm
13:03 28.9 °F /  -1.7 °C 10.6 °F /  -11.9 °C 1001.9 in /  33924.3 hPa WSW 13.0 mph /  20.9 km/h 13.0 mph /  20.9 km/h 32 % 0.0 in /  0 mm
13:08 28.4 °F /  -2 °C 10.1 °F /  -12.2 °C 1001.9 in /  33924.3 hPa WSW 11.1 mph /  17.9 km/h 11.1 mph /  17.9 km/h 32 % 0.0 in /  0 mm
13:13 28.0 °F /  -2.2 °C 9.8 °F /  -12.3 °C 1001.9 in /  33924.3 hPa SW 9.7 mph /  15.6 km/h 9.7 mph /  15.6 km/h 32 % 0.0 in /  0 mm
13:18 28.8 °F /  -1.8 °C 10.0 °F /  -12.2 °C 1001.9 in /  33924.3 hPa South 13.0 mph /  20.9 km/h 13.0 mph /  20.9 km/h 31 % 0.0 in /  0 mm
13:23 29.0 °F /  -1.7 °C 10.2 °F /  -12.1 °C 1001.9 in /  33924.3 hPa WSW 14.8 mph /  23.8 km/h 14.8 mph /  23.8 km/h 31 % 0.0 in /  0 mm
13:28 29.4 °F /  -1.4 °C 10.5 °F /  -11.9 °C 1001.9 in /  33924.3 hPa West 3.7 mph /  6 km/h 4.7 mph /  7.6 km/h 31 % 0.0 in /  0 mm
13:33 29.7 °F /  -1.3 °C 10.8 °F /  -11.8 °C 1001.9 in /  33924.3 hPa West 9.3 mph /  15 km/h 9.3 mph /  15 km/h 31 % 0.0 in /  0 mm
13:38 29.7 °F /  -1.3 °C 10.8 °F /  -11.8 °C 1001.9 in /  33924.3 hPa West 18.5 mph /  29.8 km/h 18.5 mph /  29.8 km/h 31 % 0.0 in /  0 mm
13:43 29.7 °F /  -1.3 °C 10.8 °F /  -11.8 °C 1001.9 in /  33924.3 hPa WSW 13.0 mph /  20.9 km/h 13.0 mph /  20.9 km/h 31 % 0.0 in /  0 mm
13:48 29.7 °F /  -1.3 °C 10.8 °F /  -11.8 °C 1001.9 in /  33924.3 hPa SSW 12.2 mph /  19.6 km/h 12.2 mph /  19.6 km/h 31 % 0.0 in /  0 mm
13:53 29.9 °F /  -1.2 °C 10.4 °F /  -12 °C 1001.9 in /  33924.3 hPa SW 16.7 mph /  26.9 km/h 16.7 mph /  26.9 km/h 30 % 0.0 in /  0 mm
13:58 29.9 °F /  -1.2 °C 10.4 °F /  -12 °C 1001.9 in /  33924.3 hPa West 5.6 mph /  9 km/h 5.6 mph /  9 km/h 30 % 0.0 in /  0 mm
14:03 29.7 °F /  -1.3 °C 9.8 °F /  -12.3 °C 1001.9 in /  33924.3 hPa WSW 16.7 mph /  26.9 km/h 16.7 mph /  26.9 km/h 29 % 0.0 in /  0 mm
14:08 29.6 °F /  -1.3 °C 9.7 °F /  -12.4 °C 1001.9 in /  33924.3 hPa South 14.8 mph /  23.8 km/h 14.8 mph /  23.8 km/h 29 % 0.0 in /  0 mm
14:13 29.6 °F /  -1.3 °C 9.7 °F /  -12.4 °C 1001.9 in /  33924.3 hPa West 20.4 mph /  32.8 km/h 20.4 mph /  32.8 km/h 29 % 0.0 in /  0 mm
14:18 29.7 °F /  -1.3 °C 9.8 °F /  -12.3 °C 1001.9 in /  33924.3 hPa West 25.9 mph /  41.7 km/h 25.9 mph /  41.7 km/h 29 % 0.0 in /  0 mm
14:23 29.4 °F /  -1.4 °C 9.0 °F /  -12.8 °C 1001.9 in /  33924.3 hPa West 16.7 mph /  26.9 km/h 16.7 mph /  26.9 km/h 28 % 0.0 in /  0 mm
14:28 29.7 °F /  -1.3 °C 9.2 °F /  -12.7 °C 1001.9 in /  33924.3 hPa SW 11.1 mph /  17.9 km/h 11.1 mph /  17.9 km/h 28 % 0.0 in /  0 mm
14:33 30.0 °F /  -1.1 °C 9.5 °F /  -12.5 °C 1001.9 in /  33924.3 hPa SW 16.7 mph /  26.9 km/h 16.7 mph /  26.9 km/h 28 % 0.0 in /  0 mm
14:38 29.9 °F /  -1.2 °C 9.4 °F /  -12.6 °C 1001.9 in /  33924.3 hPa West 16.9 mph /  27.2 km/h 16.9 mph /  27.2 km/h 28 % 0.0 in /  0 mm
14:43 29.8 °F /  -1.2 °C 9.3 °F /  -12.6 °C 1001.9 in /  33924.3 hPa SW 20.4 mph /  32.8 km/h 20.4 mph /  32.8 km/h 28 % 0.0 in /  0 mm
14:48 30.2 °F /  -1 °C 9.7 °F /  -12.4 °C 1001.9 in /  33924.3 hPa WSW 13.0 mph /  20.9 km/h 13.0 mph /  20.9 km/h 28 % 0.0 in /  0 mm
14:53 30.0 °F /  -1.1 °C 9.5 °F /  -12.5 °C 1001.9 in /  33924.3 hPa WNW 9.3 mph /  15 km/h 9.3 mph /  15 km/h 28 % 0.0 in /  0 mm
14:58 30.5 °F /  -0.8 °C 9.9 °F /  -12.3 °C 1000.9 in /  33890.5 hPa WSW 9.0 mph /  14.5 km/h 9.0 mph /  14.5 km/h 28 % 0.0 in /  0 mm
15:03 29.9 °F /  -1.2 °C 9.4 °F /  -12.6 °C 1000.9 in /  33890.5 hPa West 13.0 mph /  20.9 km/h 13.0 mph /  20.9 km/h 28 % 0.0 in /  0 mm
15:08 30.1 °F /  -1.1 °C 9.6 °F /  -12.4 °C 1000.9 in /  33890.5 hPa ESE 14.8 mph /  23.8 km/h 14.8 mph /  23.8 km/h 28 % 0.0 in /  0 mm
15:13 30.1 °F /  -1.1 °C 9.6 °F /  -12.4 °C 1000.9 in /  33890.5 hPa West 10.0 mph /  16.1 km/h 10.0 mph /  16.1 km/h 28 % 0.0 in /  0 mm
15:18 30.3 °F /  -0.9 °C 9.8 °F /  -12.3 °C 1000.9 in /  33890.5 hPa WNW 16.7 mph /  26.9 km/h 16.7 mph /  26.9 km/h 28 % 0.0 in /  0 mm
15:23 30.1 °F /  -1.1 °C 9.6 °F /  -12.4 °C 1000.9 in /  33890.5 hPa WSW 11.1 mph /  17.9 km/h 11.1 mph /  17.9 km/h 28 % 0.0 in /  0 mm
15:28 30.3 °F /  -0.9 °C 9.8 °F /  -12.3 °C 1000.9 in /  33890.5 hPa SW 9.3 mph /  15 km/h 9.3 mph /  15 km/h 28 % 0.0 in /  0 mm
15:33 30.2 °F /  -1 °C 9.7 °F /  -12.4 °C 1000.9 in /  33890.5 hPa WSW 10.3 mph /  16.6 km/h 10.3 mph /  16.6 km/h 28 % 0.0 in /  0 mm
15:38 30.1 °F /  -1.1 °C 9.6 °F /  -12.4 °C 1000.9 in /  33890.5 hPa SSE 11.9 mph /  19.2 km/h 11.9 mph /  19.2 km/h 28 % 0.0 in /  0 mm
15:43 30.1 °F /  -1.1 °C 9.6 °F /  -12.4 °C 999.9 in /  33856.6 hPa WSW 13.0 mph /  20.9 km/h 13.0 mph /  20.9 km/h 28 % 0.0 in /  0 mm
15:48 31.1 °F /  -0.5 °C 10.4 °F /  -12 °C 999.9 in /  33856.6 hPa SSW 18.5 mph /  29.8 km/h 18.5 mph /  29.8 km/h 28 % 0.0 in /  0 mm
15:53 31.4 °F /  -0.3 °C 10.7 °F /  -11.8 °C 999.9 in /  33856.6 hPa South 11.1 mph /  17.9 km/h 11.1 mph /  17.9 km/h 28 % 0.0 in /  0 mm
15:58 31.0 °F /  -0.6 °C 10.3 °F /  -12.1 °C 999.9 in /  33856.6 hPa SSW 18.5 mph /  29.8 km/h 18.5 mph /  29.8 km/h 28 % 0.0 in /  0 mm
15:59 30.9 °F /  -0.6 °C 10.3 °F /  -12.1 °C 999.9 in /  33856.6 hPa WSW 18.5 mph /  29.8 km/h 18.5 mph /  29.8 km/h 28 % 0.0 in /  0 mm
16:04 30.9 °F /  -0.6 °C 10.3 °F /  -12.1 °C 999.9 in /  33856.6 hPa WNW 20.4 mph /  32.8 km/h 20.4 mph /  32.8 km/h 28 % 0.0 in /  0 mm
16:09 30.0 °F /  -1.1 °C 9.5 °F /  -12.5 °C 999.9 in /  33856.6 hPa WSW 13.0 mph /  20.9 km/h 13.0 mph /  20.9 km/h 28 % 0.0 in /  0 mm
16:14 29.6 °F /  -1.3 °C 9.2 °F /  -12.7 °C 999.9 in /  33856.6 hPa SW 9.7 mph /  15.6 km/h 9.7 mph /  15.6 km/h 28 % 0.0 in /  0 mm
16:19 29.1 °F /  -1.6 °C 8.7 °F /  -12.9 °C 999.9 in /  33856.6 hPa West 16.7 mph /  26.9 km/h 16.7 mph /  26.9 km/h 28 % 0.0 in /  0 mm
16:24 29.0 °F /  -1.7 °C 8.7 °F /  -12.9 °C 999.9 in /  33856.6 hPa SW 11.1 mph /  17.9 km/h 11.1 mph /  17.9 km/h 28 % 0.0 in /  0 mm
16:29 29.0 °F /  -1.7 °C 8.7 °F /  -12.9 °C 1000.9 in /  33890.5 hPa SW 14.5 mph /  23.3 km/h 14.5 mph /  23.3 km/h 28 % 0.0 in /  0 mm
16:34 29.0 °F /  -1.7 °C 8.7 °F /  -12.9 °C 1000.9 in /  33890.5 hPa SW 9.3 mph /  15 km/h 9.3 mph /  15 km/h 28 % 0.0 in /  0 mm
16:39 28.6 °F /  -1.9 °C 8.8 °F /  -12.9 °C 1000.9 in /  33890.5 hPa SW 13.0 mph /  20.9 km/h 13.0 mph /  20.9 km/h 29 % 0.0 in /  0 mm
16:44 28.5 °F /  -1.9 °C 8.7 °F /  -12.9 °C 999.9 in /  33856.6 hPa South 24.1 mph /  38.8 km/h 24.1 mph /  38.8 km/h 29 % 0.0 in /  0 mm
16:49 28.3 °F /  -2.1 °C 8.6 °F /  -13 °C 999.9 in /  33856.6 hPa West 18.5 mph /  29.8 km/h 18.5 mph /  29.8 km/h 29 % 0.0 in /  0 mm
16:54 28.4 °F /  -2 °C 8.7 °F /  -12.9 °C 999.9 in /  33856.6 hPa WSW 27.8 mph /  44.7 km/h 27.8 mph /  44.7 km/h 29 % 0.0 in /  0 mm
16:59 28.5 °F /  -1.9 °C 9.2 °F /  -12.7 °C 999.9 in /  33856.6 hPa WSW 16.7 mph /  26.9 km/h 16.7 mph /  26.9 km/h 30 % 0.0 in /  0 mm
17:04 28.6 °F /  -1.9 °C 9.3 °F /  -12.6 °C 999.9 in /  33856.6 hPa SW 18.5 mph /  29.8 km/h 18.5 mph /  29.8 km/h 30 % 0.0 in /  0 mm
17:09 28.5 °F /  -1.9 °C 9.2 °F /  -12.7 °C 999.9 in /  33856.6 hPa WSW 14.8 mph /  23.8 km/h 14.8 mph /  23.8 km/h 30 % 0.0 in /  0 mm
17:14 28.9 °F /  -1.7 °C 9.6 °F /  -12.4 °C 999.9 in /  33856.6 hPa SW 16.7 mph /  26.9 km/h 16.7 mph /  26.9 km/h 30 % 0.0 in /  0 mm
17:19 28.4 °F /  -2 °C 9.2 °F /  -12.7 °C 999.9 in /  33856.6 hPa West 22.2 mph /  35.7 km/h 22.2 mph /  35.7 km/h 30 % 0.0 in /  0 mm
17:24 28.0 °F /  -2.2 °C 9.3 °F /  -12.6 °C 999.9 in /  33856.6 hPa SSW 29.6 mph /  47.6 km/h 29.6 mph /  47.6 km/h 31 % 0.0 in /  0 mm
17:29 28.0 °F /  -2.2 °C 9.3 °F /  -12.6 °C 999.9 in /  33856.6 hPa SW 22.2 mph /  35.7 km/h 22.2 mph /  35.7 km/h 31 % 0.0 in /  0 mm
17:34 27.9 °F /  -2.3 °C 10.1 °F /  -12.2 °C 999.9 in /  33856.6 hPa SSW 22.2 mph /  35.7 km/h 22.2 mph /  35.7 km/h 33 % 0.0 in /  0 mm
17:40 28.1 °F /  -2.2 °C 10.3 °F /  -12.1 °C 999.9 in /  33856.6 hPa SSW 30.1 mph /  48.4 km/h 30.1 mph /  48.4 km/h 33 % 0.0 in /  0 mm
17:45 27.9 °F /  -2.3 °C 10.6 °F /  -11.9 °C 999.9 in /  33856.6 hPa SW 33.3 mph /  53.6 km/h 33.3 mph /  53.6 km/h 34 % 0.0 in /  0 mm
17:50 27.7 °F /  -2.4 °C 10.8 °F /  -11.8 °C 999.9 in /  33856.6 hPa SW 22.2 mph /  35.7 km/h 22.2 mph /  35.7 km/h 35 % 0.0 in /  0 mm
17:55 28.3 °F /  -2.1 °C 11.8 °F /  -11.2 °C 999.9 in /  33856.6 hPa SW 16.1 mph /  25.9 km/h 16.1 mph /  25.9 km/h 36 % 0.0 in /  0 mm
18:00 28.0 °F /  -2.2 °C 11.6 °F /  -11.3 °C 999.9 in /  33856.6 hPa South 16.1 mph /  25.9 km/h 16.1 mph /  25.9 km/h 36 % 0.0 in /  0 mm
18:05 27.8 °F /  -2.3 °C 11.8 °F /  -11.2 °C 999.9 in /  33856.6 hPa West 22.2 mph /  35.7 km/h 22.2 mph /  35.7 km/h 37 % 0.0 in /  0 mm
18:10 28.0 °F /  -2.2 °C 11.6 °F /  -11.3 °C 999.9 in /  33856.6 hPa SW 19.8 mph /  31.9 km/h 19.8 mph /  31.9 km/h 36 % 0.0 in /  0 mm
18:15 28.0 °F /  -2.2 °C 11.6 °F /  -11.3 °C 999.9 in /  33856.6 hPa SSW 22.2 mph /  35.7 km/h 22.2 mph /  35.7 km/h 36 % 0.0 in /  0 mm
18:20 27.9 °F /  -2.3 °C 11.4 °F /  -11.4 °C 999.9 in /  33856.6 hPa SW 20.4 mph /  32.8 km/h 20.4 mph /  32.8 km/h 36 % 0.0 in /  0 mm
18:25 27.5 °F /  -2.5 °C 11.1 °F /  -11.6 °C 999.9 in /  33856.6 hPa SW 16.7 mph /  26.9 km/h 16.7 mph /  26.9 km/h 36 % 0.0 in /  0 mm
18:30 27.2 °F /  -2.7 °C 11.2 °F /  -11.6 °C 999.9 in /  33856.6 hPa SW 20.9 mph /  33.6 km/h 20.9 mph /  33.6 km/h 37 % 0.0 in /  0 mm
18:35 26.8 °F /  -2.9 °C 11.7 °F /  -11.3 °C 999.9 in /  33856.6 hPa WSW 20.4 mph /  32.8 km/h 20.4 mph /  32.8 km/h 39 % 0.0 in /  0 mm
18:40 26.3 °F /  -3.2 °C 11.6 °F /  -11.3 °C 999.9 in /  33856.6 hPa SW 20.9 mph /  33.6 km/h 20.9 mph /  33.6 km/h 40 % 0.0 in /  0 mm
18:45 26.2 °F /  -3.2 °C 11.6 °F /  -11.3 °C 999.9 in /  33856.6 hPa West 24.1 mph /  38.8 km/h 24.1 mph /  38.8 km/h 40 % 0.0 in /  0 mm
18:50 26.0 °F /  -3.3 °C 11.7 °F /  -11.3 °C 999.9 in /  33856.6 hPa WSW 24.1 mph /  38.8 km/h 24.1 mph /  38.8 km/h 41 % 0.0 in /  0 mm
18:55 26.1 °F /  -3.3 °C 11.8 °F /  -11.2 °C 999.9 in /  33856.6 hPa SW 14.8 mph /  23.8 km/h 14.8 mph /  23.8 km/h 41 % 0.0 in /  0 mm
19:00 25.9 °F /  -3.4 °C 12.0 °F /  -11.1 °C 999.9 in /  33856.6 hPa South 16.7 mph /  26.9 km/h 16.7 mph /  26.9 km/h 42 % 0.0 in /  0 mm
19:05 25.8 °F /  -3.4 °C 12.3 °F /  -10.9 °C 999.9 in /  33856.6 hPa South 14.8 mph /  23.8 km/h 14.8 mph /  23.8 km/h 43 % 0.0 in /  0 mm
19:10 25.6 °F /  -3.6 °C 12.4 °F /  -10.9 °C 999.9 in /  33856.6 hPa West 15.8 mph /  25.4 km/h 15.8 mph /  25.4 km/h 44 % 0.0 in /  0 mm
19:15 24.9 °F /  -3.9 °C 12.2 °F /  -11 °C 999.9 in /  33856.6 hPa WSW 33.3 mph /  53.6 km/h 33.3 mph /  53.6 km/h 45 % 0.0 in /  0 mm
19:20 20.9 °F /  -6.2 °C 11.2 °F /  -11.6 °C 999.9 in /  33856.6 hPa SSW 22.2 mph /  35.7 km/h 22.2 mph /  35.7 km/h 54 % 0.0 in /  0 mm
19:25 19.4 °F /  -7 °C 11.2 °F /  -11.6 °C 999.9 in /  33856.6 hPa SW 9.3 mph /  15 km/h 9.3 mph /  15 km/h 59 % 2.0 in /  50.8 mm
19:30 19.0 °F /  -7.2 °C 11.1 °F /  -11.6 °C 1001.9 in /  33924.3 hPa SW 7.4 mph /  11.9 km/h 7.4 mph /  11.9 km/h 60 % 2.0 in /  50.8 mm
19:35 18.8 °F /  -7.3 °C 11.6 °F /  -11.3 °C 1001.9 in /  33924.3 hPa SSW 9.3 mph /  15 km/h 9.3 mph /  15 km/h 63 % 2.0 in /  50.8 mm
19:40 18.7 °F /  -7.4 °C 11.7 °F /  -11.3 °C 1001.9 in /  33924.3 hPa WSW 5.6 mph /  9 km/h 5.6 mph /  9 km/h 64 % 2.0 in /  50.8 mm
19:45 18.8 °F /  -7.3 °C 12.1 °F /  -11.1 °C 1000.9 in /  33890.5 hPa West 5.6 mph /  9 km/h 5.6 mph /  9 km/h 65 % 2.0 in /  50.8 mm
19:50 19.1 °F /  -7.2 °C 12.6 °F /  -10.8 °C 1000.9 in /  33890.5 hPa West 3.7 mph /  6 km/h 3.7 mph /  6 km/h 66 % 2.0 in /  50.8 mm
19:55 19.2 °F /  -7.1 °C 12.4 °F /  -10.9 °C 1000.9 in /  33890.5 hPa NW 2.6 mph /  4.2 km/h 2.6 mph /  4.2 km/h 65 % 2.0 in /  50.8 mm
20:00 19.4 °F /  -7 °C 13.1 °F /  -10.5 °C 1001.9 in /  33924.3 hPa East 5.6 mph /  9 km/h 5.6 mph /  9 km/h 67 % 2.0 in /  50.8 mm
20:05 19.5 °F /  -6.9 °C 13.0 °F /  -10.6 °C 1001.9 in /  33924.3 hPa East 3.9 mph /  6.3 km/h 3.9 mph /  6.3 km/h 66 % 2.0 in /  50.8 mm
20:10 19.6 °F /  -6.9 °C 13.3 °F /  -10.4 °C 1001.9 in /  33924.3 hPa ENE 5.8 mph /  9.3 km/h 5.8 mph /  9.3 km/h 67 % 2.0 in /  50.8 mm
20:15 19.7 °F /  -6.8 °C 13.4 °F /  -10.3 °C 1001.9 in /  33924.3 hPa South 3.7 mph /  6 km/h 3.7 mph /  6 km/h 67 % 2.0 in /  50.8 mm
20:20 19.6 °F /  -6.9 °C 13.1 °F /  -10.5 °C 1001.9 in /  33924.3 hPa East 5.6 mph /  9 km/h 5.6 mph /  9 km/h 66 % 2.0 in /  50.8 mm
20:25 19.6 °F /  -6.9 °C 12.8 °F /  -10.7 °C 1001.9 in /  33924.3 hPa NE 3.7 mph /  6 km/h   65 % 0.0 in /  0 mm
20:30 19.6 °F /  -6.9 °C 12.8 °F /  -10.7 °C 1001.9 in /  33924.3 hPa NE 1.9 mph /  3.1 km/h   65 % 0.0 in /  0 mm
20:35 19.6 °F /  -6.9 °C 12.6 °F /  -10.8 °C 1001.9 in /  33924.3 hPa West 1.9 mph /  3.1 km/h   64 % 0.0 in /  0 mm
20:40 19.7 °F /  -6.8 °C 12.7 °F /  -10.7 °C 1001.9 in /  33924.3 hPa Calm     64 % 0.0 in /  0 mm
20:45 19.7 °F /  -6.8 °C 12.2 °F /  -11 °C 1001.9 in /  33924.3 hPa WSW 3.7 mph /  6 km/h 3.7 mph /  6 km/h 62 % 0.0 in /  0 mm
20:50 19.8 °F /  -6.8 °C 12.6 °F /  -10.8 °C 1001.9 in /  33924.3 hPa Calm     63 % 0.0 in /  0 mm
20:55 19.9 °F /  -6.7 °C 12.7 °F /  -10.7 °C 1001.9 in /  33924.3 hPa SE 1.9 mph /  3.1 km/h   63 % 0.0 in /  0 mm
21:00 19.9 °F /  -6.7 °C 12.4 °F /  -10.9 °C 1001.9 in /  33924.3 hPa Calm     62 % 0.0 in /  0 mm
21:05 19.9 °F /  -6.7 °C 13.1 °F /  -10.5 °C 1001.9 in /  33924.3 hPa WSW 2.6 mph /  4.2 km/h   65 % 0.0 in /  0 mm
21:10 19.7 °F /  -6.8 °C 13.4 °F /  -10.3 °C 1001.9 in /  33924.3 hPa WSW 1.9 mph /  3.1 km/h   67 % 0.0 in /  0 mm
21:15 19.6 °F /  -6.9 °C 13.3 °F /  -10.4 °C 1001.9 in /  33924.3 hPa Calm     67 % 0.0 in /  0 mm
21:20 19.5 °F /  -6.9 °C 13.2 °F /  -10.4 °C 1001.9 in /  33924.3 hPa WNW 1.9 mph /  3.1 km/h   67 % 0.0 in /  0 mm
21:25 19.5 °F /  -6.9 °C 13.2 °F /  -10.4 °C 1001.9 in /  33924.3 hPa Calm     67 % 0.0 in /  0 mm
21:30 19.5 °F /  -6.9 °C 13.7 °F /  -10.2 °C 1002.9 in /  33958.2 hPa NE 3.2 mph /  5.1 km/h 3.2 mph /  5.1 km/h 69 % 0.0 in /  0 mm
21:35 19.3 °F /  -7.1 °C 13.2 °F /  -10.4 °C 1002.9 in /  33958.2 hPa ENE 2.3 mph /  3.7 km/h 2.3 mph /  3.7 km/h 68 % 0.0 in /  0 mm
21:40 19.3 °F /  -7.1 °C 13.0 °F /  -10.6 °C 1002.9 in /  33958.2 hPa NE 3.7 mph /  6 km/h 3.7 mph /  6 km/h 67 % 0.0 in /  0 mm
21:45 19.5 °F /  -6.9 °C 13.0 °F /  -10.6 °C 1002.9 in /  33958.2 hPa ENE 7.9 mph /  12.7 km/h 7.9 mph /  12.7 km/h 66 % 0.0 in /  0 mm
21:50 19.6 °F /  -6.9 °C 12.8 °F /  -10.7 °C 1002.9 in /  33958.2 hPa North 7.4 mph /  11.9 km/h 7.4 mph /  11.9 km/h 65 % 0.0 in /  0 mm
21:55 19.7 °F /  -6.8 °C 12.7 °F /  -10.7 °C 1002.9 in /  33958.2 hPa NE 9.3 mph /  15 km/h 9.3 mph /  15 km/h 64 % 0.0 in /  0 mm
22:00 19.7 °F /  -6.8 °C 12.9 °F /  -10.6 °C 1003.9 in /  33992.1 hPa NNE 7.4 mph /  11.9 km/h 7.4 mph /  11.9 km/h 65 % 0.0 in /  0 mm
22:05 19.7 °F /  -6.8 °C 12.9 °F /  -10.6 °C 1003.9 in /  33992.1 hPa NNE 9.3 mph /  15 km/h 9.3 mph /  15 km/h 65 % 0.0 in /  0 mm
22:10 19.7 °F /  -6.8 °C 12.9 °F /  -10.6 °C 1003.9 in /  33992.1 hPa West 7.4 mph /  11.9 km/h 7.4 mph /  11.9 km/h 65 % 0.0 in /  0 mm
22:15 19.4 °F /  -7 °C 12.7 °F /  -10.7 °C 1003.9 in /  33992.1 hPa NNE 5.3 mph /  8.5 km/h 5.3 mph /  8.5 km/h 65 % 0.0 in /  0 mm
22:20 19.5 °F /  -6.9 °C 12.5 °F /  -10.8 °C 1003.9 in /  33992.1 hPa WSW 5.6 mph /  9 km/h 5.6 mph /  9 km/h 64 % 0.0 in /  0 mm
22:25 19.7 °F /  -6.8 °C 12.7 °F /  -10.7 °C 1003.9 in /  33992.1 hPa East 3.9 mph /  6.3 km/h 3.9 mph /  6.3 km/h 64 % 0.0 in /  0 mm
22:30 19.9 °F /  -6.7 °C 12.4 °F /  -10.9 °C 1002.9 in /  33958.2 hPa NNW 1.9 mph /  3.1 km/h 2.3 mph /  3.7 km/h 62 % 0.0 in /  0 mm
22:35 20.2 °F /  -6.6 °C 12.2 °F /  -11 °C 1002.9 in /  33958.2 hPa East 3.7 mph /  6 km/h 3.7 mph /  6 km/h 60 % 0.0 in /  0 mm
22:40 20.0 °F /  -6.7 °C 12.5 °F /  -10.8 °C 1002.9 in /  33958.2 hPa East 5.6 mph /  9 km/h 5.6 mph /  9 km/h 62 % 0.0 in /  0 mm
22:45 19.6 °F /  -6.9 °C 12.8 °F /  -10.7 °C 1002.9 in /  33958.2 hPa ESE 7.4 mph /  11.9 km/h 7.4 mph /  11.9 km/h 65 % 0.0 in /  0 mm
22:50 19.4 °F /  -7 °C 12.7 °F /  -10.7 °C 1002.9 in /  33958.2 hPa SSE 5.6 mph /  9 km/h 5.6 mph /  9 km/h 65 % 0.0 in /  0 mm
22:55 19.3 °F /  -7.1 °C 12.8 °F /  -10.7 °C 1002.9 in /  33958.2 hPa SE 5.6 mph /  9 km/h 5.6 mph /  9 km/h 66 % 0.0 in /  0 mm
23:00 19.2 °F /  -7.1 °C 12.4 °F /  -10.9 °C 1003.9 in /  33992.1 hPa SSW 1.4 mph /  2.3 km/h   65 % 0.0 in /  0 mm
23:05 19.1 °F /  -7.2 °C 12.6 °F /  -10.8 °C 1003.9 in /  33992.1 hPa WSW 3.7 mph /  6 km/h 3.7 mph /  6 km/h 66 % 0.0 in /  0 mm
23:10 18.9 °F /  -7.3 °C 12.6 °F /  -10.8 °C 1003.9 in /  33992.1 hPa SW 1.4 mph /  2.3 km/h   67 % 0.0 in /  0 mm
23:15 18.7 °F /  -7.4 °C 12.7 °F /  -10.7 °C 1002.9 in /  33958.2 hPa Calm     68 % 0.0 in /  0 mm
23:20 18.7 °F /  -7.4 °C 12.7 °F /  -10.7 °C 1002.9 in /  33958.2 hPa NE 3.7 mph /  6 km/h 3.7 mph /  6 km/h 68 % 0.0 in /  0 mm
23:25 18.9 °F /  -7.3 °C 12.9 °F /  -10.6 °C 1002.9 in /  33958.2 hPa East 3.7 mph /  6 km/h 3.9 mph /  6.3 km/h 68 % 0.0 in /  0 mm
23:30 18.8 °F /  -7.3 °C 12.8 °F /  -10.7 °C 1003.9 in /  33992.1 hPa East 6.9 mph /  11.1 km/h 6.9 mph /  11.1 km/h 68 % 0.0 in /  0 mm
23:35 18.8 °F /  -7.3 °C 12.8 °F /  -10.7 °C 1003.9 in /  33992.1 hPa ESE 9.3 mph /  15 km/h 9.3 mph /  15 km/h 68 % 0.0 in /  0 mm
23:40 18.8 °F /  -7.3 °C 12.6 °F /  -10.8 °C 1003.9 in /  33992.1 hPa ESE 5.6 mph /  9 km/h 5.6 mph /  9 km/h 67 % 0.0 in /  0 mm
23:45 18.8 °F /  -7.3 °C 12.8 °F /  -10.7 °C 1003.9 in /  33992.1 hPa NNE 5.6 mph /  9 km/h 5.6 mph /  9 km/h 68 % 0.0 in /  0 mm
23:50 18.8 °F /  -7.3 °C 12.8 °F /  -10.7 °C 1003.9 in /  33992.1 hPa East 7.4 mph /  11.9 km/h 7.4 mph /  11.9 km/h 68 % 0.0 in /  0 mm
23:55 18.8 °F /  -7.3 °C 12.8 °F /  -10.7 °C 1003.9 in /  33992.1 hPa SE 9.3 mph /  15 km/h 9.3 mph /  15 km/h 68 % 0.0 in /  0 mm
Meteo Sesrovires
Elogis d' Weather Underground - 1.5 mb

Guio original per  Jim McMurry - jmcmurry@mwt.net Adaptat per a la plantilla per  Wim van der Kuil - Leuven-Template.eu

Trobareu la nostra informacio del temps tambe a:

Weather Underground

AWEKAS